Pagrindinis puslapis
METAR-TAF:

METAR-TAF

Oro uostai :

Nakhon Si Thammarat, Tailandas

platuma: 8-32-22N, ilguma: 99-56-41E, Aukštis: 4 m

Dabartinis oras

Ataskaita buvo paskelbta 18 minutes, ne 03:00 UTC
Vėjas 3 kt nuo kintamojo kryptimis
Temperatūra 34°C
Drėgmė 63%
Slėgis 1012 hPa
Matomumas 10 km arba daugiau
Mažai debesys ne aukštis 1800 ft

METAR: VTSF 310300Z VRB03KT 9999 FEW018 34/26 Q1012 NOSIG

Laikas: 10:18 (03:18 UTC)

Prognozė

Ataskaita buvo paskelbta 4 valandos ir 18 minutes, ne 23:00 UTC
Prognozė galioja nuo 31 metu 00 UTC su 31 metu 24 UTC
Vėjas 6 kt iš Šiaurės Vakarų
Matomumas 10 km arba daugiau
Mažai debesys ne aukštis 2000 ft
Laikinai
nuo 31 metu 06 UTC su 31 metu 12 UTC
Vėjas 10 kt nuo kintamojo kryptimis su gūsio iki 20 kt
Matomumas: 5000 m
Mažai debesys ne aukštis 1600 ft, Liūtiniai kamuoliniai debesys.
Išsisklaidę debesys ne aukštis 1800 ft
Su prošvaistėmis ne aukštis 10000 ft
perkūnija, lietus

TAF: VTSF 302300Z 3100/3124 31006KT 9999 FEW020 TEMPO 3106/3112 VRB10G20KT 5000 TSRA FEW016CB SCT018 BKN100

Orai ataskaitas ir orų prognozės (METAR, TAF).

turimą stotys yra geltonos ir raudonos taškus žemėlapyje.

Perkelti pele per norėdami pamatyti stoties vardą.

Tada spustelėkite, norėdami matyti oro stebėjimo ir prognozės.

Norėdami pakeisti žemėlapį: spustelėkite ant žalios mygtukų su juodo kryžiaus žemyn,; žalią mygtuką su brūkšneliu, jei norite nutolinti; arba žalių rodyklių gretimoms žemėlapius.


METAR-TAF: